createdAt,value
2022-10-17T00:02:05.647Z,100546.00
2022-10-17T00:07:07.810Z,100551.00
2022-10-17T00:09:37.923Z,100540.00
2022-10-17T00:12:07.223Z,100531.00
2022-10-17T00:14:35.926Z,100542.00
2022-10-17T00:17:05.195Z,100544.00
2022-10-17T00:19:33.857Z,100532.00
2022-10-17T00:22:02.486Z,100526.00
2022-10-17T00:24:32.535Z,100533.00
2022-10-17T00:27:02.739Z,100530.00
2022-10-17T00:29:31.408Z,100532.00
2022-10-17T00:32:00.119Z,100532.00
2022-10-17T00:34:32.104Z,100526.00
2022-10-17T00:37:00.748Z,100531.00
2022-10-17T00:39:29.306Z,100532.00
2022-10-17T00:41:58.569Z,100537.00
2022-10-17T00:45:19.693Z,100528.00
2022-10-17T00:47:54.551Z,100522.00
2022-10-17T00:50:25.285Z,100526.00
2022-10-17T00:52:55.688Z,100534.00
2022-10-17T00:55:30.494Z,100531.00
2022-10-17T00:58:03.216Z,100526.00
2022-10-17T01:00:33.665Z,100510.00
2022-10-17T01:03:02.482Z,100506.00
2022-10-17T01:05:31.913Z,100496.00
2022-10-17T01:08:01.018Z,100501.00
2022-10-17T01:10:40.324Z,100495.00
2022-10-17T01:13:20.316Z,100489.00
2022-10-17T01:16:09.936Z,100502.00
2022-10-17T01:19:01.607Z,100501.00
2022-10-17T01:21:51.993Z,100500.00
2022-10-17T01:25:08.761Z,100503.00
2022-10-17T01:28:11.591Z,100508.00
2022-10-17T01:31:10.935Z,100504.00
2022-10-17T01:33:49.703Z,100503.00
2022-10-17T01:36:37.015Z,100499.00
2022-10-17T01:39:20.034Z,100493.00
2022-10-17T01:41:58.288Z,100496.00
2022-10-17T01:44:39.940Z,100484.00
2022-10-17T01:47:18.630Z,100509.00
2022-10-17T01:49:52.658Z,100504.00
2022-10-17T01:52:26.232Z,100503.00
2022-10-17T01:54:59.845Z,100509.00
2022-10-17T01:57:35.841Z,100509.00
2022-10-17T02:00:10.307Z,100501.00
2022-10-17T02:02:46.485Z,100498.00
2022-10-17T02:05:17.318Z,100508.00
2022-10-17T02:07:46.052Z,100506.00
2022-10-17T02:10:26.830Z,100499.00
2022-10-17T02:13:07.640Z,100491.00
2022-10-17T02:15:55.262Z,100504.00
2022-10-17T02:18:48.242Z,100490.00
2022-10-17T02:21:52.509Z,100495.00
2022-10-17T02:24:34.743Z,100519.00
2022-10-17T02:27:13.314Z,100511.00
2022-10-17T02:29:50.049Z,100510.00
2022-10-17T02:32:26.045Z,100522.00
2022-10-17T02:34:59.657Z,100517.00
2022-10-17T02:37:32.795Z,100513.00
2022-10-17T02:40:04.348Z,100524.00
2022-10-17T02:42:34.328Z,100529.00
2022-10-17T02:45:08.257Z,100526.00
2022-10-17T02:47:50.767Z,100519.00
2022-10-17T02:53:10.165Z,100508.00
2022-10-17T02:55:49.593Z,100513.00
2022-10-17T02:58:26.293Z,100518.00
2022-10-17T03:00:55.723Z,100511.00
2022-10-17T03:03:27.334Z,100518.00
2022-10-17T03:05:58.099Z,100516.00
2022-10-17T03:08:28.187Z,100521.00
2022-10-17T03:10:58.183Z,100503.00
2022-10-17T03:13:29.928Z,100519.00
2022-10-17T03:15:59.313Z,100519.00
2022-10-17T03:18:28.602Z,100505.00
2022-10-17T03:21:02.845Z,100504.00
2022-10-17T03:23:31.831Z,100502.00
2022-10-17T03:26:05.317Z,100506.00
2022-10-17T03:28:36.244Z,100497.00
2022-10-17T03:31:09.646Z,100505.00
2022-10-17T03:33:39.799Z,100491.00
2022-10-17T03:36:14.117Z,100492.00
2022-10-17T03:38:45.414Z,100482.00
2022-10-17T03:41:14.546Z,100483.00
2022-10-17T03:43:43.950Z,100475.00
2022-10-17T03:46:12.873Z,100473.00
2022-10-17T03:48:41.665Z,100486.00
2022-10-17T03:51:12.266Z,100482.00
2022-10-17T03:53:46.434Z,100486.00
2022-10-17T03:56:18.402Z,100492.00
2022-10-17T03:58:53.467Z,100479.00
2022-10-17T04:01:23.625Z,100480.00
2022-10-17T04:03:53.322Z,100481.00
2022-10-17T04:06:24.284Z,100474.00
2022-10-17T04:08:52.972Z,100466.00
2022-10-17T04:11:29.178Z,100472.00
2022-10-17T04:14:01.594Z,100444.00
2022-10-17T04:16:31.927Z,100464.00
2022-10-17T04:19:13.230Z,100468.00
2022-10-17T04:21:48.004Z,100456.00
2022-10-17T04:24:17.441Z,100464.00
2022-10-17T04:26:52.227Z,100455.00
2022-10-17T04:29:23.010Z,100440.00
2022-10-17T04:31:54.114Z,100449.00
2022-10-17T04:34:45.557Z,100463.00
2022-10-17T04:37:16.420Z,100455.00
2022-10-17T04:39:47.312Z,100442.00
2022-10-17T04:42:17.088Z,100456.00
2022-10-17T04:44:45.874Z,100450.00
2022-10-17T04:47:17.741Z,100434.00
2022-10-17T04:49:46.509Z,100429.00
2022-10-17T04:52:18.843Z,100426.00
2022-10-17T04:54:52.138Z,100441.00
2022-10-17T04:57:21.412Z,100420.00
2022-10-17T05:00:03.889Z,100425.00
2022-10-17T05:02:58.710Z,100400.00
2022-10-17T05:05:28.640Z,100415.00
2022-10-17T05:07:59.854Z,100418.00
2022-10-17T05:10:36.876Z,100429.00
2022-10-17T05:13:06.948Z,100421.00
2022-10-17T05:15:39.002Z,100430.00
2022-10-17T05:18:08.469Z,100424.00
2022-10-17T05:20:38.213Z,100403.00
2022-10-17T05:23:09.740Z,100443.00
2022-10-17T05:25:42.419Z,100432.00
2022-10-17T05:28:11.236Z,100445.00
2022-10-17T05:30:42.303Z,100430.00
2022-10-17T05:33:11.796Z,100440.00
2022-10-17T05:35:41.604Z,100443.00
2022-10-17T05:38:11.712Z,100458.00
2022-10-17T05:40:42.840Z,100450.00
2022-10-17T05:43:12.081Z,100442.00
2022-10-17T05:45:41.017Z,100456.00
2022-10-17T05:48:14.180Z,100455.00
2022-10-17T05:50:42.941Z,100441.00
2022-10-17T05:53:18.721Z,100453.00
2022-10-17T05:56:06.053Z,100460.00
2022-10-17T05:58:49.803Z,100445.00
2022-10-17T06:01:42.395Z,100425.00
2022-10-17T06:04:11.602Z,100449.00
2022-10-17T06:06:41.902Z,100440.00
2022-10-17T06:09:12.957Z,100451.00
2022-10-17T06:11:45.400Z,100381.00
2022-10-17T06:14:14.566Z,100463.00
2022-10-17T06:16:43.956Z,100459.00
2022-10-17T06:19:12.832Z,100455.00
2022-10-17T06:21:42.262Z,100447.00
2022-10-17T06:24:18.300Z,100448.00
2022-10-17T06:26:49.868Z,100455.00
2022-10-17T06:29:19.310Z,100461.00
2022-10-17T06:31:50.804Z,100466.00
2022-10-17T06:34:20.716Z,100463.00
2022-10-17T06:36:49.918Z,100456.00
2022-10-17T06:39:22.049Z,100452.00
2022-10-17T06:42:03.590Z,100456.00
2022-10-17T06:44:48.694Z,100462.00
2022-10-17T06:47:33.805Z,100454.00
2022-10-17T06:50:09.973Z,100464.00
2022-10-17T06:52:45.904Z,100443.00
2022-10-17T06:55:35.730Z,100461.00
2022-10-17T06:58:26.045Z,100466.00
2022-10-17T07:03:44.904Z,100449.00
2022-10-17T07:06:13.930Z,100439.00
2022-10-17T07:08:45.797Z,100453.00
2022-10-17T07:11:22.183Z,100442.00
2022-10-17T07:13:53.687Z,100453.00
2022-10-17T07:16:24.012Z,100451.00
2022-10-17T07:19:05.944Z,100445.00
2022-10-17T07:21:39.303Z,100441.00
2022-10-17T07:24:10.124Z,100452.00
2022-10-17T07:26:41.347Z,100434.00
2022-10-17T07:29:11.355Z,100410.00
2022-10-17T07:31:56.156Z,100430.00
2022-10-17T07:34:27.574Z,100449.00
2022-10-17T07:36:56.826Z,100446.00
2022-10-17T07:39:25.654Z,100447.00
2022-10-17T07:41:56.032Z,100436.00
2022-10-17T07:44:25.940Z,100439.00
2022-10-17T07:46:55.941Z,100435.00
2022-10-17T07:49:25.362Z,100426.00
2022-10-17T07:51:54.080Z,100433.00
2022-10-17T07:54:22.786Z,100439.00
2022-10-17T07:56:51.575Z,100432.00
2022-10-17T07:59:21.940Z,100392.00
2022-10-17T08:01:50.614Z,100455.00
2022-10-17T08:04:19.242Z,100447.00
2022-10-17T08:06:50.853Z,100454.00
2022-10-17T08:09:22.546Z,100440.00
2022-10-17T08:11:51.304Z,100431.00
2022-10-17T08:14:22.109Z,100436.00
2022-10-17T08:16:50.945Z,100429.00
2022-10-17T08:19:25.589Z,100439.00
2022-10-17T08:21:54.553Z,100438.00
2022-10-17T08:24:23.341Z,100448.00
2022-10-17T08:26:53.431Z,100454.00
2022-10-17T08:29:23.593Z,100441.00
2022-10-17T08:31:56.275Z,100436.00
2022-10-17T08:34:29.743Z,100398.00
2022-10-17T08:36:58.486Z,100436.00
2022-10-17T08:39:27.341Z,100421.00
2022-10-17T08:42:13.454Z,100436.00
2022-10-17T08:45:01.510Z,100457.00
2022-10-17T08:47:39.499Z,100429.00
2022-10-17T08:50:17.219Z,100464.00
2022-10-17T08:52:53.517Z,100459.00
2022-10-17T08:55:32.231Z,100454.00
2022-10-17T08:58:01.374Z,100478.00
2022-10-17T09:00:33.977Z,100480.00
2022-10-17T09:03:23.758Z,100452.00
2022-10-17T09:06:12.342Z,100472.00
2022-10-17T09:08:54.434Z,100476.00
2022-10-17T09:11:47.639Z,100508.00
2022-10-17T09:15:03.526Z,100519.00
2022-10-17T09:17:52.673Z,100493.00
2022-10-17T09:20:25.925Z,100479.00
2022-10-17T09:23:00.314Z,100475.00
2022-10-17T09:25:29.845Z,100526.00
2022-10-17T09:28:12.294Z,100545.00
2022-10-17T09:30:46.499Z,100568.00
2022-10-17T09:33:34.503Z,100550.00
2022-10-17T09:36:12.337Z,100567.00
2022-10-17T09:38:44.552Z,100574.00
2022-10-17T09:44:21.764Z,100609.00
2022-10-17T09:47:10.026Z,100604.00
2022-10-17T09:49:42.671Z,100583.00
2022-10-17T09:52:16.530Z,100615.00
2022-10-17T09:54:49.205Z,100628.00
2022-10-17T09:57:20.622Z,100635.00
2022-10-17T09:59:58.923Z,100651.00
2022-10-17T10:02:30.867Z,100654.00
2022-10-17T10:05:06.705Z,100635.00
2022-10-17T10:07:40.069Z,100562.00
2022-10-17T10:10:27.790Z,100656.00
2022-10-17T10:13:21.508Z,100660.00
2022-10-17T10:15:52.283Z,100669.00
2022-10-17T10:18:35.791Z,100635.00
2022-10-17T10:21:11.283Z,100600.00
2022-10-17T10:23:41.760Z,100702.00
2022-10-17T10:26:27.201Z,100718.00
2022-10-17T10:29:01.080Z,100717.00
2022-10-17T10:31:37.371Z,100740.00
2022-10-17T10:34:21.095Z,100725.00
2022-10-17T10:37:03.929Z,100702.00
2022-10-17T10:39:48.484Z,100756.00
2022-10-17T10:42:31.179Z,100742.00
2022-10-17T10:45:05.209Z,100758.00
2022-10-17T10:47:35.167Z,100758.00
2022-10-17T10:50:25.518Z,100775.00
2022-10-17T10:53:11.502Z,100778.00
2022-10-17T10:55:48.206Z,100783.00
2022-10-17T10:58:36.809Z,100776.00
2022-10-17T11:01:16.842Z,100788.00
2022-10-17T11:04:07.950Z,100750.00
2022-10-17T11:06:41.185Z,100749.00
2022-10-17T11:09:33.749Z,100776.00
2022-10-17T11:12:11.984Z,100797.00
2022-10-17T11:14:49.019Z,100809.00
2022-10-17T11:17:30.249Z,100838.00
2022-10-17T11:20:15.176Z,100835.00
2022-10-17T11:22:48.462Z,100837.00
2022-10-17T11:25:33.449Z,100854.00
2022-10-17T11:28:05.089Z,100852.00
2022-10-17T11:30:47.208Z,100866.00
2022-10-17T11:33:26.823Z,100830.00
2022-10-17T11:36:07.326Z,100879.00
2022-10-17T11:38:47.172Z,100877.00
2022-10-17T11:41:23.581Z,100892.00
2022-10-17T11:43:58.832Z,100858.00
2022-10-17T11:46:30.591Z,100899.00
2022-10-17T11:49:14.965Z,100883.00
2022-10-17T11:52:02.318Z,100911.00
2022-10-17T11:54:39.498Z,100925.00
2022-10-17T11:57:36.104Z,100914.00
2022-10-17T12:00:28.237Z,100902.00
2022-10-17T12:03:18.825Z,100922.00
2022-10-17T12:05:57.206Z,100920.00
2022-10-17T12:08:34.839Z,100951.00
2022-10-17T12:11:15.593Z,100928.00
2022-10-17T12:13:55.323Z,100962.00
2022-10-17T12:16:46.265Z,100963.00
2022-10-17T12:19:39.290Z,100956.00
2022-10-17T12:22:21.598Z,100975.00
2022-10-17T12:25:01.917Z,100971.00
2022-10-17T12:27:42.499Z,100980.00
2022-10-17T12:30:27.200Z,100957.00
2022-10-17T12:33:06.525Z,100970.00
2022-10-17T12:35:38.935Z,100993.00
2022-10-17T12:38:27.929Z,100957.00
2022-10-17T12:40:59.536Z,100997.00
2022-10-17T12:43:53.915Z,101007.00
2022-10-17T12:47:30.825Z,101012.00
2022-10-17T12:50:00.290Z,101017.00
2022-10-17T12:53:07.539Z,101013.00
2022-10-17T12:55:37.621Z,101010.00
2022-10-17T12:58:15.599Z,100995.00
2022-10-17T13:03:48.472Z,101009.00
2022-10-17T13:06:25.155Z,101014.00
2022-10-17T13:09:03.488Z,101017.00
2022-10-17T13:11:37.900Z,101039.00
2022-10-17T13:14:16.342Z,100966.00
2022-10-17T13:16:54.755Z,101064.00
2022-10-17T13:19:27.446Z,101024.00
2022-10-17T13:22:01.035Z,101067.00
2022-10-17T13:24:35.341Z,101061.00
2022-10-17T13:27:05.313Z,101057.00
2022-10-17T13:29:34.624Z,101023.00
2022-10-17T13:32:07.061Z,101039.00
2022-10-17T13:34:37.250Z,101073.00
2022-10-17T13:37:09.658Z,101108.00
2022-10-17T13:39:55.251Z,101082.00
2022-10-17T13:42:30.313Z,101101.00
2022-10-17T13:45:00.744Z,101105.00
2022-10-17T13:47:35.240Z,101095.00
2022-10-17T13:50:26.296Z,101086.00
2022-10-17T13:53:26.266Z,101105.00
2022-10-17T13:56:22.877Z,101111.00
2022-10-17T13:58:52.045Z,101128.00
2022-10-17T14:01:22.922Z,101134.00
2022-10-17T14:04:07.167Z,101080.00
2022-10-17T14:06:47.887Z,101127.00
2022-10-17T14:09:24.682Z,101144.00
2022-10-17T14:12:04.638Z,101132.00
2022-10-17T14:14:51.703Z,101150.00
2022-10-17T14:17:27.588Z,101146.00
2022-10-17T14:25:42.926Z,101143.00
2022-10-17T14:28:18.498Z,101144.00
2022-10-17T14:30:56.653Z,101152.00
2022-10-17T14:33:30.409Z,101145.00
2022-10-17T14:36:02.390Z,101157.00
2022-10-17T14:38:33.232Z,101148.00
2022-10-17T14:41:37.764Z,101162.00
2022-10-17T14:44:03.012Z,101176.00
2022-10-17T14:46:32.392Z,101158.00
2022-10-17T14:49:08.621Z,101186.00
2022-10-17T14:51:50.675Z,101186.00
2022-10-17T14:54:30.306Z,101196.00
2022-10-17T14:56:59.105Z,101189.00
2022-10-17T14:59:52.985Z,101181.00
2022-10-17T15:02:17.275Z,101198.00
2022-10-17T15:04:46.152Z,101190.00
2022-10-17T15:07:17.107Z,101197.00
2022-10-17T15:09:50.613Z,101218.00
2022-10-17T15:12:22.109Z,101168.00
2022-10-17T15:14:52.573Z,101201.00
2022-10-17T15:17:25.877Z,101194.00
2022-10-17T15:19:55.619Z,101212.00
2022-10-17T15:22:24.967Z,101221.00
2022-10-17T15:24:55.438Z,101201.00
2022-10-17T15:27:27.802Z,101202.00
2022-10-17T15:29:56.795Z,101214.00
2022-10-17T15:32:26.043Z,101226.00
2022-10-17T15:34:54.830Z,101232.00
2022-10-17T15:37:26.488Z,101241.00
2022-10-17T15:39:57.269Z,101218.00
2022-10-17T15:42:30.897Z,101237.00
2022-10-17T15:45:02.462Z,101256.00
2022-10-17T15:47:34.731Z,101250.00
2022-10-17T15:50:04.954Z,101259.00
2022-10-17T15:52:34.327Z,101240.00
2022-10-17T15:55:05.486Z,101259.00
2022-10-17T15:57:39.576Z,101244.00
2022-10-17T16:00:16.804Z,101248.00
2022-10-17T16:02:46.583Z,101254.00
2022-10-17T16:05:23.302Z,101253.00
2022-10-17T16:07:53.620Z,101260.00
2022-10-17T16:10:25.745Z,101249.00
2022-10-17T16:12:55.290Z,101259.00
2022-10-17T16:15:28.106Z,101266.00
2022-10-17T16:18:01.707Z,101276.00
2022-10-17T16:20:33.593Z,101284.00
2022-10-17T16:23:03.382Z,101273.00
2022-10-17T16:25:34.812Z,101278.00
2022-10-17T16:28:04.630Z,101290.00
2022-10-17T16:30:45.157Z,101264.00
2022-10-17T16:33:14.526Z,101278.00
2022-10-17T16:35:45.851Z,101263.00
2022-10-17T16:38:15.196Z,101233.00
2022-10-17T16:40:46.018Z,101286.00
2022-10-17T16:43:15.729Z,101271.00
2022-10-17T16:45:45.221Z,101274.00
2022-10-17T16:48:14.933Z,101259.00
2022-10-17T16:50:44.276Z,101287.00
2022-10-17T16:53:13.528Z,101285.00
2022-10-17T16:55:42.811Z,101294.00
2022-10-17T16:58:15.090Z,101299.00
2022-10-17T17:00:47.125Z,101299.00
2022-10-17T17:03:19.740Z,101296.00
2022-10-17T17:05:52.857Z,101306.00
2022-10-17T17:08:22.239Z,101295.00
2022-10-17T17:10:51.731Z,101259.00
2022-10-17T17:13:22.835Z,101295.00
2022-10-17T17:15:54.233Z,101294.00
2022-10-17T17:18:24.120Z,101270.00
2022-10-17T17:20:58.450Z,101292.00
2022-10-17T17:23:27.972Z,101264.00
2022-10-17T17:26:01.891Z,101303.00
2022-10-17T17:28:34.230Z,101281.00
2022-10-17T17:31:07.584Z,101286.00
2022-10-17T17:33:38.903Z,101263.00
2022-10-17T17:36:18.803Z,101288.00
2022-10-17T17:38:50.096Z,101307.00
2022-10-17T17:41:22.437Z,101295.00
2022-10-17T17:43:56.072Z,101321.00
2022-10-17T17:46:26.804Z,101305.00
2022-10-17T17:48:57.626Z,101327.00
2022-10-17T17:51:29.466Z,101307.00
2022-10-17T17:54:02.277Z,101307.00
2022-10-17T17:56:32.315Z,101316.00
2022-10-17T17:59:04.352Z,101304.00
2022-10-17T18:01:39.410Z,101315.00
2022-10-17T18:04:10.866Z,101316.00
2022-10-17T18:06:41.955Z,101320.00
2022-10-17T18:09:13.364Z,101316.00
2022-10-17T18:11:44.859Z,101310.00
2022-10-17T18:14:16.031Z,101303.00
2022-10-17T18:16:45.593Z,101304.00
2022-10-17T18:19:15.085Z,101314.00
2022-10-17T18:21:44.725Z,101324.00
2022-10-17T18:24:16.195Z,101312.00
2022-10-17T18:26:45.797Z,101311.00
2022-10-17T18:29:19.767Z,101309.00
2022-10-17T18:31:49.351Z,101320.00
2022-10-17T18:34:18.906Z,101305.00
2022-10-17T18:36:48.642Z,101306.00
2022-10-17T18:39:21.565Z,101306.00
2022-10-17T18:41:51.110Z,101311.00
2022-10-17T18:44:22.040Z,101300.00
2022-10-17T18:46:51.563Z,101303.00
2022-10-17T18:49:23.481Z,101306.00
2022-10-17T18:51:56.230Z,101304.00
2022-10-17T18:54:29.550Z,101300.00
2022-10-17T18:57:02.121Z,101297.00
2022-10-17T18:59:33.222Z,101312.00
2022-10-17T19:02:02.923Z,101320.00
2022-10-17T19:04:37.867Z,101300.00
2022-10-17T19:07:07.443Z,101310.00
2022-10-17T19:09:37.039Z,101311.00
2022-10-17T19:12:08.649Z,101300.00
2022-10-17T19:14:39.973Z,101305.00
2022-10-17T19:17:09.560Z,101301.00
2022-10-17T19:19:39.676Z,101291.00
2022-10-17T19:22:10.685Z,101304.00
2022-10-17T19:24:40.372Z,101296.00
2022-10-17T19:27:17.369Z,101298.00
2022-10-17T19:30:08.085Z,101305.00
2022-10-17T19:32:37.860Z,101312.00
2022-10-17T19:35:08.588Z,101320.00
2022-10-17T19:37:38.077Z,101314.00
2022-10-17T19:40:09.294Z,101310.00
2022-10-17T19:42:38.761Z,101325.00
2022-10-17T19:45:11.637Z,101319.00
2022-10-17T19:47:43.747Z,101320.00
2022-10-17T19:50:15.814Z,101317.00
2022-10-17T19:52:45.199Z,101302.00
2022-10-17T19:55:14.835Z,101308.00
2022-10-17T19:57:44.097Z,101316.00
2022-10-17T20:00:16.788Z,101314.00
2022-10-17T20:02:46.402Z,101321.00
2022-10-17T20:05:18.907Z,101313.00
2022-10-17T20:07:49.044Z,101305.00
2022-10-17T20:10:19.216Z,101309.00
2022-10-17T20:12:48.614Z,101312.00
2022-10-17T20:15:19.537Z,101308.00
2022-10-17T20:17:49.033Z,101316.00
2022-10-17T20:20:18.919Z,101316.00
2022-10-17T20:22:48.747Z,101309.00
2022-10-17T20:25:18.423Z,101309.00
2022-10-17T20:27:47.793Z,101312.00
2022-10-17T20:30:37.337Z,101302.00
2022-10-17T20:33:06.756Z,101296.00
2022-10-17T20:35:36.433Z,101309.00
2022-10-17T20:38:06.067Z,101299.00
2022-10-17T20:40:35.875Z,101294.00
2022-10-17T20:43:09.852Z,101291.00
2022-10-17T20:45:51.566Z,101294.00
2022-10-17T20:48:21.212Z,101293.00
2022-10-17T20:50:51.698Z,101302.00
2022-10-17T20:53:37.845Z,101284.00
2022-10-17T20:56:12.409Z,101299.00
2022-10-17T20:58:41.093Z,101300.00
2022-10-17T21:01:12.577Z,101287.00
2022-10-17T21:03:44.044Z,101293.00
2022-10-17T21:06:16.784Z,101278.00
2022-10-17T21:08:46.235Z,101277.00
2022-10-17T21:11:19.340Z,101280.00
2022-10-17T21:13:57.682Z,101275.00
2022-10-17T21:16:30.735Z,101283.00
2022-10-17T21:19:02.329Z,101274.00
2022-10-17T21:21:34.775Z,101269.00
2022-10-17T21:24:06.530Z,101265.00
2022-10-17T21:26:37.966Z,101272.00
2022-10-17T21:29:07.895Z,101276.00
2022-10-17T21:31:40.605Z,101271.00
2022-10-17T21:34:12.149Z,101266.00
2022-10-17T21:36:41.589Z,101260.00
2022-10-17T21:39:12.036Z,101251.00
2022-10-17T21:41:41.043Z,101253.00
2022-10-17T21:44:14.860Z,101257.00
2022-10-17T21:46:46.822Z,101260.00
2022-10-17T21:49:22.742Z,101253.00
2022-10-17T21:51:53.197Z,101253.00
2022-10-17T21:54:23.648Z,101242.00
2022-10-17T21:56:53.951Z,101237.00
2022-10-17T21:59:22.793Z,101234.00
2022-10-17T22:01:52.892Z,101228.00
2022-10-17T22:04:22.146Z,101218.00
2022-10-17T22:06:54.849Z,101214.00
2022-10-17T22:09:26.157Z,101216.00
2022-10-17T22:11:57.961Z,101211.00
2022-10-17T22:14:29.746Z,101218.00
2022-10-17T22:17:01.552Z,101222.00
2022-10-17T22:19:31.396Z,101213.00
2022-10-17T22:22:00.162Z,101209.00
2022-10-17T22:24:29.100Z,101207.00
2022-10-17T22:26:57.944Z,101203.00
2022-10-17T22:29:26.748Z,101201.00
2022-10-17T22:31:56.958Z,101191.00
2022-10-17T22:34:27.645Z,101188.00
2022-10-17T22:36:56.659Z,101180.00
2022-10-17T22:39:25.472Z,101175.00
2022-10-17T22:41:54.299Z,101167.00
2022-10-17T22:44:23.341Z,101180.00
2022-10-17T22:46:52.259Z,101168.00
2022-10-17T22:49:21.032Z,101170.00
2022-10-17T22:51:51.062Z,101167.00
2022-10-17T22:54:19.797Z,101161.00
2022-10-17T22:56:48.561Z,101158.00
2022-10-17T22:59:17.423Z,101156.00
2022-10-17T23:01:46.203Z,101150.00
2022-10-17T23:04:15.492Z,101143.00
2022-10-17T23:06:44.433Z,101148.00
2022-10-17T23:09:15.677Z,101147.00
2022-10-17T23:11:44.455Z,101149.00
2022-10-17T23:14:13.499Z,101148.00
2022-10-17T23:16:42.237Z,101139.00
2022-10-17T23:19:10.981Z,101128.00
2022-10-17T23:21:39.638Z,101130.00
2022-10-17T23:24:08.576Z,101134.00
2022-10-17T23:26:38.786Z,101130.00
2022-10-17T23:29:07.572Z,101134.00
2022-10-17T23:31:36.540Z,101128.00
2022-10-17T23:34:05.315Z,101134.00
2022-10-17T23:36:34.942Z,101128.00
2022-10-17T23:39:04.132Z,101126.00
2022-10-17T23:41:33.878Z,101127.00
2022-10-17T23:44:03.980Z,101123.00
2022-10-17T23:46:33.431Z,101118.00
2022-10-17T23:49:02.161Z,101114.00
2022-10-17T23:51:30.829Z,101115.00
2022-10-17T23:53:59.575Z,101113.00
2022-10-17T23:56:28.309Z,101105.00
2022-10-17T23:58:57.137Z,101104.00
